Time;durP1;ratioP1;P1;durP2;ratioP2;P2;SDS_P1;SDS_P2;PMS_P1;PMS_P2;Temp;Humidity;BMP_temperature;BMP_pressure;BME280_temperature;BME280_humidity;BME280_pressure;Samples;Min_cycle;Max_cycle;Signal;HPM_P1;HPM_P2
2022/11/21 00:00:30;;;;;;;2.67;2.47;;;19.80;42.30;;;;;;4995123;28;20223;-63
2022/11/21 00:03:01;;;;;;;2.83;2.63;;;19.80;42.30;;;;;;4992599;28;20310;-64
2022/11/21 00:05:31;;;;;;;3.17;2.90;;;19.80;42.30;;;;;;4979647;28;20446;-64
2022/11/21 00:07:57;;;;;;;2.70;2.50;;;19.90;42.50;;;;;;4999675;28;20968;-63
2022/11/21 00:10:24;;;;;;;2.80;2.60;;;19.80;42.30;;;;;;5001082;28;20465;-63
2022/11/21 00:12:54;;;;;;;3.17;2.97;;;19.80;42.30;;;;;;5001328;28;20501;-64
2022/11/21 00:15:21;;;;;;;3.30;3.00;;;19.80;42.30;;;;;;4999508;28;20487;-63
2022/11/21 00:17:46;;;;;;;2.87;2.67;;;19.80;42.40;;;;;;5000666;28;20434;-63
2022/11/21 00:20:12;;;;;;;2.60;2.40;;;19.80;42.40;;;;;;4988965;28;20453;-63
2022/11/21 00:22:37;;;;;;;2.60;2.40;;;19.80;42.40;;;;;;4991990;28;20305;-63
2022/11/21 00:25:03;;;;;;;3.03;2.83;;;19.80;42.30;;;;;;4995003;28;20778;-64
2022/11/21 00:27:29;;;;;;;2.20;2.10;;;19.80;42.40;;;;;;5003610;28;20761;-63
2022/11/21 00:29:54;;;;;;;2.20;2.10;;;19.80;42.30;;;;;;4996928;28;20464;-63
2022/11/21 00:32:20;;;;;;;2.30;2.10;;;19.80;42.30;;;;;;5000866;28;20897;-65
2022/11/21 00:34:45;;;;;;;2.60;2.40;;;19.80;42.40;;;;;;4998962;28;20238;-62
2022/11/21 00:37:11;;;;;;;2.50;2.30;;;19.80;42.30;;;;;;5000482;28;20227;-63
2022/11/21 00:39:36;;;;;;;3.10;2.80;;;19.80;42.40;;;;;;4995814;28;20211;-63
2022/11/21 00:42:02;;;;;;;2.10;2.00;;;19.80;42.40;;;;;;4998119;28;20617;-63
2022/11/21 00:44:27;;;;;;;2.67;2.00;;;19.80;42.40;;;;;;4998778;28;20957;-64
2022/11/21 00:46:53;;;;;;;2.70;2.27;;;19.80;42.50;;;;;;4996478;28;20267;-63
2022/11/21 00:49:18;;;;;;;2.20;2.10;;;19.80;42.40;;;;;;4993841;28;20270;-63
2022/11/21 00:51:44;;;;;;;2.23;2.13;;;19.80;42.30;;;;;;4993906;28;20690;-63
2022/11/21 00:54:10;;;;;;;2.17;2.07;;;19.80;42.30;;;;;;4982094;28;20215;-63
2022/11/21 00:56:35;;;;;;;2.20;2.10;;;19.80;42.50;;;;;;5000245;28;20242;-63
2022/11/21 00:59:01;;;;;;;2.60;2.40;;;19.80;42.40;;;;;;4993124;28;20308;-63
2022/11/21 01:01:26;;;;;;;2.80;2.07;;;19.80;42.40;;;;;;4982513;28;20694;-64
2022/11/21 01:03:52;;;;;;;2.60;2.40;;;19.80;42.50;;;;;;4992142;28;20224;-64
2022/11/21 01:06:17;;;;;;;2.30;2.10;;;19.80;42.40;;;;;;4988662;28;20246;-64
2022/11/21 01:08:43;;;;;;;2.67;2.47;;;19.80;42.50;;;;;;5002069;28;20231;-64
2022/11/21 01:11:14;;;;;;;2.20;2.00;;;19.80;42.50;;;;;;5003619;28;20706;-63
2022/11/21 01:13:41;;;;;;;2.50;2.30;;;19.80;42.40;;;;;;4998922;28;20453;-63
2022/11/21 01:16:12;;;;;;;2.10;2.00;;;19.80;42.30;;;;;;4990555;28;20449;-64
2022/11/21 01:18:38;;;;;;;2.70;2.10;;;19.80;42.30;;;;;;4996813;28;20520;-64
2022/11/21 01:21:07;;;;;;;2.63;2.00;;;19.80;42.40;;;;;;4979048;28;20424;-63
2022/11/21 01:23:33;;;;;;;2.40;2.30;;;19.80;43.10;;;;;;4980875;28;20527;-63
2022/11/21 01:26:04;;;;;;;2.00;1.90;;;19.80;42.40;;;;;;4978065;28;20464;-63
2022/11/21 01:28:30;;;;;;;1.90;1.80;;;19.80;42.40;;;;;;4980363;28;23017;-63
2022/11/21 01:31:12;;;;;;;2.37;2.10;;;19.80;42.30;;;;;;4993457;28;20946;-64
2022/11/21 01:33:38;;;;;;;1.90;1.80;;;19.80;42.40;;;;;;4997597;28;20663;-63
2022/11/21 01:36:17;;;;;;;2.40;2.20;;;19.80;42.50;;;;;;5002506;28;20500;-62
2022/11/21 01:38:45;;;;;;;1.90;1.80;;;19.80;42.30;;;;;;4998637;28;20273;-64
2022/11/21 01:41:13;;;;;;;2.70;2.33;;;19.80;42.50;;;;;;5001062;28;20484;-65
2022/11/21 01:43:39;;;;;;;2.57;2.00;;;19.80;42.50;;;;;;4999096;28;20455;-63
2022/11/21 01:46:12;;;;;;;2.20;2.00;;;19.80;42.50;;;;;;4995723;28;20829;-63
2022/11/21 01:48:49;;;;;;;2.10;2.00;;;19.80;42.40;;;;;;4995482;28;20230;-63
2022/11/21 01:51:24;;;;;;;1.80;1.70;;;19.80;42.50;;;;;;4993200;28;20988;-63
2022/11/21 01:54:13;;;;;;;2.20;2.10;;;19.80;42.50;;;;;;4994742;28;20928;-63
2022/11/21 01:57:00;;;;;;;2.20;1.97;;;19.80;42.50;;;;;;4988122;28;20456;-63
2022/11/21 01:59:31;;;;;;;2.70;2.50;;;19.80;42.50;;;;;;4980190;28;21020;-63
2022/11/21 02:02:00;;;;;;;2.20;2.00;;;19.80;42.50;;;;;;4981065;28;20469;-63
2022/11/21 02:04:29;;;;;;;2.57;2.37;;;19.80;42.50;;;;;;4983124;28;20508;-63
2022/11/21 02:06:55;;;;;;;2.10;2.00;;;19.80;42.50;;;;;;4991278;28;20908;-62
2022/11/21 02:09:23;;;;;;;2.40;2.20;;;19.80;42.50;;;;;;4993291;28;20455;-62
2022/11/21 02:11:54;;;;;;;2.33;2.13;;;19.80;42.50;;;;;;4995689;28;20444;-63
2022/11/21 02:14:19;;;;;;;2.10;2.00;;;19.80;42.50;;;;;;4993233;28;20453;-63
2022/11/21 02:16:45;;;;;;;2.63;2.43;;;19.80;42.50;;;;;;4996430;28;20764;-63
2022/11/21 02:19:32;;;;;;;2.20;2.10;;;19.80;42.50;;;;;;4992189;28;20215;-64
2022/11/21 02:22:10;;;;;;;1.93;1.83;;;19.80;42.50;;;;;;4997843;28;20476;-62
2022/11/21 02:24:44;;;;;;;2.20;2.10;;;19.80;42.50;;;;;;4996507;28;20440;-63
2022/11/21 02:27:10;;;;;;;2.30;2.17;;;19.80;42.50;;;;;;4997026;28;20462;-63
2022/11/21 02:29:36;;;;;;;2.50;2.30;;;19.80;42.60;;;;;;5000454;28;20443;-63
2022/11/21 02:32:04;;;;;;;2.10;2.00;;;19.80;42.50;;;;;;4998181;28;20668;-63
2022/11/21 02:34:30;;;;;;;2.50;2.30;;;19.80;42.50;;;;;;5013275;28;20460;-64
2022/11/21 02:36:56;;;;;;;2.40;2.20;;;19.80;42.50;;;;;;4983498;28;20450;-63
2022/11/21 02:39:40;;;;;;;2.67;2.47;;;19.80;42.50;;;;;;4979292;28;20441;-63
2022/11/21 02:42:36;;;;;;;2.43;2.23;;;19.80;42.50;;;;;;4977114;28;20221;-63
2022/11/21 02:45:10;;;;;;;2.27;2.17;;;19.80;42.50;;;;;;4982483;28;20987;-63
2022/11/21 02:47:38;;;;;;;2.67;2.47;;;19.80;42.60;;;;;;4996152;28;20468;-62
2022/11/21 02:50:33;;;;;;;2.33;2.23;;;19.70;42.50;;;;;;5001261;28;20469;-64
2022/11/21 02:52:59;;;;;;;2.27;2.17;;;19.80;42.60;;;;;;4991268;28;20456;-63
2022/11/21 02:55:25;;;;;;;2.70;2.30;;;19.80;43.30;;;;;;4995020;28;20470;-63
2022/11/21 02:57:50;;;;;;;2.30;2.20;;;19.80;42.60;;;;;;4985438;28;20227;-63
2022/11/21 03:00:17;;;;;;;2.67;2.47;;;19.70;42.50;;;;;;4974330;28;20255;-64
2022/11/21 03:02:42;;;;;;;2.20;2.10;;;19.70;42.50;;;;;;4983977;28;20231;-63
2022/11/21 03:05:10;;;;;;;2.50;2.40;;;19.70;42.50;;;;;;4979513;28;20466;-64
2022/11/21 03:07:36;;;;;;;2.57;2.20;;;19.80;42.60;;;;;;4979898;28;20248;-63
2022/11/21 03:10:02;;;;;;;2.10;2.00;;;19.80;42.60;;;;;;4979174;28;20536;-66
2022/11/21 03:12:27;;;;;;;2.70;2.50;;;19.80;42.60;;;;;;4975068;28;20219;-65
2022/11/21 03:14:53;;;;;;;2.57;2.37;;;19.70;42.50;;;;;;4980508;28;20511;-64
2022/11/21 03:17:18;;;;;;;2.53;2.33;;;19.80;42.60;;;;;;4980730;28;20270;-64
2022/11/21 03:19:44;;;;;;;2.20;2.10;;;19.80;42.50;;;;;;4982345;28;20232;-63
2022/11/21 03:22:11;;;;;;;2.17;2.07;;;19.80;42.50;;;;;;4981447;28;20232;-64
2022/11/21 03:24:37;;;;;;;2.27;2.17;;;19.80;42.50;;;;;;4987317;28;20277;-64
2022/11/21 03:27:02;;;;;;;3.17;2.60;;;19.70;42.50;;;;;;4996235;28;20424;-63
2022/11/21 03:29:28;;;;;;;2.60;2.40;;;19.80;42.60;;;;;;4997241;28;20325;-64
2022/11/21 03:31:53;;;;;;;3.00;2.80;;;19.80;42.60;;;;;;5001269;28;20219;-64
2022/11/21 03:34:19;;;;;;;2.60;2.40;;;19.80;42.60;;;;;;4993775;28;20362;-63
2022/11/21 03:36:44;;;;;;;4.27;3.10;;;19.80;42.50;;;;;;4996861;28;20554;-64
2022/11/21 03:39:10;;;;;;;2.33;2.23;;;19.80;42.60;;;;;;4995486;28;20237;-65
2022/11/21 03:41:35;;;;;;;2.20;2.10;;;19.80;42.60;;;;;;4993611;28;20223;-64
2022/11/21 03:44:06;;;;;;;2.30;2.20;;;19.80;42.60;;;;;;4978265;28;20212;-65
2022/11/21 03:46:34;;;;;;;2.17;2.07;;;19.80;42.60;;;;;;4988994;28;20235;-63
2022/11/21 03:49:00;;;;;;;2.30;2.20;;;19.80;42.60;;;;;;4994612;28;20477;-64
2022/11/21 03:51:26;;;;;;;2.60;2.40;;;19.80;42.60;;;;;;4993200;28;21003;-64
2022/11/21 03:53:52;;;;;;;3.03;2.83;;;19.80;43.30;;;;;;4993657;28;20252;-63
2022/11/21 03:56:18;;;;;;;2.87;2.67;;;19.80;42.50;;;;;;4997636;28;21521;-64
2022/11/21 03:58:44;;;;;;;2.30;2.20;;;19.80;42.50;;;;;;4987128;28;20559;-64
2022/11/21 04:01:12;;;;;;;2.83;2.63;;;19.80;42.60;;;;;;4981288;28;20957;-64
2022/11/21 04:03:38;;;;;;;3.00;2.80;;;19.80;42.60;;;;;;4978583;28;20231;-64
2022/11/21 04:06:03;;;;;;;2.47;2.33;;;19.70;42.50;;;;;;4979612;28;20469;-63
2022/11/21 04:08:29;;;;;;;2.80;2.60;;;19.70;42.50;;;;;;4993320;28;20449;-64
2022/11/21 04:10:54;;;;;;;3.10;2.90;;;19.70;42.50;;;;;;4998492;28;20946;-63
2022/11/21 04:13:20;;;;;;;2.80;2.60;;;19.80;42.60;;;;;;4998099;28;20253;-64
2022/11/21 04:15:46;;;;;;;2.97;2.77;;;19.70;42.50;;;;;;4996328;28;20231;-64
2022/11/21 04:18:12;;;;;;;2.50;2.40;;;19.70;42.50;;;;;;4994976;28;20217;-64
2022/11/21 04:20:39;;;;;;;3.00;2.80;;;19.70;42.50;;;;;;4984091;28;20549;-64
2022/11/21 04:23:05;;;;;;;3.40;3.20;;;19.70;42.50;;;;;;4989742;28;20553;-64
2022/11/21 04:25:31;;;;;;;2.63;2.43;;;19.70;42.50;;;;;;4996987;28;20461;-63
2022/11/21 04:28:01;;;;;;;2.90;2.60;;;19.70;42.50;;;;;;4997658;28;20479;-64
2022/11/21 04:30:28;;;;;;;2.50;2.40;;;19.70;42.50;;;;;;4997330;28;21556;-63
2022/11/21 04:32:54;;;;;;;2.87;2.67;;;19.70;42.50;;;;;;4995459;28;20897;-63
2022/11/21 04:35:21;;;;;;;3.00;2.80;;;19.70;42.50;;;;;;4996646;28;20987;-63
2022/11/21 04:37:46;;;;;;;2.83;2.63;;;19.70;42.50;;;;;;4997116;28;20461;-64
2022/11/21 04:40:13;;;;;;;2.97;2.67;;;19.70;42.60;;;;;;4999839;28;20547;-63
2022/11/21 04:42:43;;;;;;;3.20;3.00;;;19.70;42.50;;;;;;4999102;28;20238;-63
2022/11/21 04:45:09;;;;;;;2.77;2.57;;;19.70;42.50;;;;;;5001087;28;20472;-65
2022/11/21 04:47:39;;;;;;;3.00;2.80;;;19.70;42.50;;;;;;5001737;28;20491;-63
2022/11/21 04:50:06;;;;;;;3.20;3.00;;;19.70;42.50;;;;;;4997538;28;20468;-63
2022/11/21 04:52:31;;;;;;;2.73;2.53;;;19.70;42.50;;;;;;4999974;28;20481;-64
2022/11/21 04:54:57;;;;;;;2.57;2.47;;;19.70;42.50;;;;;;4995830;28;20427;-64
2022/11/21 04:57:23;;;;;;;3.50;3.30;;;19.70;42.50;;;;;;5001144;28;20224;-63
2022/11/21 04:59:49;;;;;;;3.17;2.97;;;19.70;43.30;;;;;;4995666;28;20241;-63
2022/11/21 05:02:14;;;;;;;2.60;2.40;;;19.80;42.60;;;;;;4994821;28;20227;-64
2022/11/21 05:04:40;;;;;;;3.00;2.80;;;19.80;42.60;;;;;;4985855;28;20216;-64
2022/11/21 05:07:05;;;;;;;2.37;2.27;;;19.80;42.50;;;;;;4983561;28;20231;-64
2022/11/21 05:09:31;;;;;;;2.50;2.40;;;19.80;42.50;;;;;;4978119;28;20239;-63
2022/11/21 05:14:41;;;;;;;2.30;2.20;;;19.80;42.40;;;;;;4978278;28;20271;-64
2022/11/21 05:17:06;;;;;;;2.97;2.77;;;19.80;42.50;;;;;;4978008;28;20457;-63
2022/11/21 05:19:32;;;;;;;2.37;2.27;;;19.80;42.40;;;;;;4985599;28;20235;-64
2022/11/21 05:21:58;;;;;;;3.13;2.93;;;19.80;42.40;;;;;;4995187;28;20222;-63
2022/11/21 05:24:23;;;;;;;3.50;3.30;;;19.90;42.50;;;;;;4997114;28;20234;-63
2022/11/21 05:26:49;;;;;;;2.67;2.47;;;19.90;42.50;;;;;;4999039;28;20238;-63
2022/11/21 05:29:14;;;;;;;2.93;2.73;;;19.90;42.50;;;;;;4998198;28;20948;-64
2022/11/21 05:31:40;;;;;;;2.80;2.60;;;19.90;42.30;;;;;;4997080;28;20224;-65
2022/11/21 05:34:05;;;;;;;3.23;3.03;;;19.90;42.30;;;;;;4995586;28;20602;-65
2022/11/21 05:36:31;;;;;;;2.80;2.60;;;19.90;42.20;;;;;;4994935;28;20681;-65
2022/11/21 05:38:56;;;;;;;3.43;3.13;;;20.00;42.30;;;;;;4996865;28;20226;-63
2022/11/21 05:41:22;;;;;;;2.97;2.83;;;20.00;42.20;;;;;;4981655;28;20238;-62
2022/11/21 05:43:48;;;;;;;3.00;2.80;;;20.00;42.20;;;;;;4997871;28;20682;-61
2022/11/21 05:46:25;;;;;;;3.20;3.00;;;20.00;42.20;;;;;;4992005;28;20242;-63
2022/11/21 05:48:52;;;;;;;2.73;2.60;;;20.00;42.10;;;;;;4978583;28;20575;-62
2022/11/21 05:51:19;;;;;;;4.87;3.40;;;20.00;42.30;;;;;;4981630;28;20745;-62
2022/11/21 05:53:45;;;;;;;2.70;2.60;;;20.00;42.20;;;;;;4981567;28;20473;-62
2022/11/21 05:56:16;;;;;;;2.57;2.47;;;20.00;42.10;;;;;;4995755;28;20507;-63
2022/11/21 05:58:42;;;;;;;2.63;2.53;;;20.00;42.50;;;;;;4997201;28;20842;-62
2022/11/21 06:01:09;;;;;;;2.67;2.57;;;20.00;42.20;;;;;;5001174;28;20831;-62
2022/11/21 06:03:38;;;;;;;2.60;2.50;;;20.00;42.20;;;;;;4988360;28;20223;-62
2022/11/21 06:06:11;;;;;;;2.90;2.70;;;20.00;42.20;;;;;;5005006;28;20846;-63
2022/11/21 06:08:42;;;;;;;2.97;2.77;;;20.00;42.20;;;;;;4981032;28;20500;-63
2022/11/21 06:11:10;;;;;;;2.57;2.47;;;20.00;42.20;;;;;;4979871;28;20456;-63
2022/11/21 06:13:36;;;;;;;3.00;2.80;;;20.00;42.20;;;;;;4991745;28;20553;-62
2022/11/21 06:16:14;;;;;;;3.50;3.30;;;20.00;42.10;;;;;;4976653;28;20469;-63
2022/11/21 06:18:41;;;;;;;3.23;3.03;;;20.00;42.20;;;;;;4990426;28;20475;-63
2022/11/21 06:21:19;;;;;;;3.20;2.97;;;20.00;42.20;;;;;;4995243;28;20479;-66
2022/11/21 06:23:45;;;;;;;3.10;2.90;;;20.00;42.20;;;;;;4989760;28;20446;-62
2022/11/21 06:26:14;;;;;;;3.43;3.23;;;20.00;42.10;;;;;;4982660;28;20516;-63
2022/11/21 06:28:40;;;;;;;3.23;3.03;;;20.00;42.10;;;;;;4977692;28;20574;-64
2022/11/21 06:31:18;;;;;;;3.00;2.80;;;20.00;42.60;;;;;;4981230;28;20481;-65
2022/11/21 06:33:44;;;;;;;3.40;3.20;;;20.00;42.10;;;;;;4974596;28;21118;-63
2022/11/21 06:36:15;;;;;;;2.53;2.43;;;20.00;42.10;;;;;;4977439;28;20524;-61
2022/11/21 06:38:42;;;;;;;3.07;2.87;;;20.00;42.20;;;;;;4993582;28;20457;-61
2022/11/21 06:41:12;;;;;;;3.20;3.00;;;20.00;42.10;;;;;;4987744;28;20461;-61
2022/11/21 06:43:38;;;;;;;2.60;2.40;;;20.00;42.10;;;;;;5006773;28;20530;-62
2022/11/21 06:46:04;;;;;;;3.30;3.00;;;20.00;42.90;;;;;;4993497;28;20444;-61
2022/11/21 06:48:34;;;;;;;3.53;3.33;;;20.00;42.20;;;;;;5000060;28;20460;-61
2022/11/21 06:51:05;;;;;;;4.50;2.97;;;20.00;42.10;;;;;;4991713;28;20618;-61
2022/11/21 06:53:30;;;;;;;3.20;3.00;;;20.00;42.20;;;;;;4984803;28;20432;-61
2022/11/21 06:56:00;;;;;;;3.77;3.43;;;20.00;42.10;;;;;;4984664;28;20460;-61
2022/11/21 06:58:26;;;;;;;3.07;2.87;;;20.00;42.10;;;;;;4982824;28;20247;-60
2022/11/21 07:00:51;;;;;;;4.13;3.83;;;20.00;42.10;;;;;;4987720;28;21020;-61
2022/11/21 07:03:17;;;;;;;2.97;2.77;;;20.00;42.10;;;;;;4978744;28;20216;-62
2022/11/21 07:05:42;;;;;;;3.07;2.87;;;20.00;42.10;;;;;;4981980;28;20250;-61
2022/11/21 07:08:08;;;;;;;3.13;2.83;;;20.00;42.00;;;;;;4981026;28;21847;-61
2022/11/21 07:10:34;;;;;;;3.70;3.50;;;20.00;42.10;;;;;;4984332;28;20279;-60
2022/11/21 07:15:45;;;;;;;3.50;3.30;;;20.00;42.10;;;;;;4982324;28;20759;-64
2022/11/21 07:18:11;;;;;;;3.57;3.37;;;20.00;42.10;;;;;;4974204;28;20478;-61
2022/11/21 07:20:37;;;;;;;2.83;2.63;;;20.00;42.10;;;;;;4990717;28;20460;-62
2022/11/21 07:23:02;;;;;;;3.40;3.10;;;20.00;42.10;;;;;;4981431;28;20821;-61
2022/11/21 07:25:28;;;;;;;4.40;3.57;;;20.00;42.10;;;;;;4983850;28;20351;-62
2022/11/21 07:27:56;;;;;;;6.30;3.50;;;20.00;42.00;;;;;;4981131;28;20219;-60
2022/11/21 07:30:22;;;;;;;7.10;3.67;;;20.00;42.10;;;;;;4979862;28;20279;-61
2022/11/21 07:42:59;;;;;;;5.00;4.60;;;20.00;42.10;;;;;;5000974;28;21348;-60
2022/11/21 07:45:24;;;;;;;5.00;4.60;;;20.00;42.20;;;;;;4999619;28;20457;-61
2022/11/21 07:47:59;;;;;;;5.43;5.03;;;20.00;42.20;;;;;;4996301;28;21006;-61
2022/11/21 07:50:25;;;;;;;5.17;4.77;;;20.00;42.20;;;;;;4984200;28;20243;-60
2022/11/21 07:52:55;;;;;;;5.30;4.80;;;20.00;42.20;;;;;;4980872;28;20450;-60
2022/11/21 07:55:20;;;;;;;5.63;4.67;;;20.00;42.20;;;;;;4982287;28;20228;-61
2022/11/21 07:57:46;;;;;;;6.67;5.63;;;20.00;42.20;;;;;;4984926;28;20479;-61
2022/11/21 08:00:12;;;;;;;6.10;5.53;;;20.00;42.10;;;;;;5000654;28;20567;-60
2022/11/21 08:02:37;;;;;;;7.80;5.67;;;20.00;42.10;;;;;;4998773;28;20746;-61
2022/11/21 08:05:03;;;;;;;6.30;5.70;;;20.00;42.20;;;;;;4996736;28;20549;-61
2022/11/21 08:07:29;;;;;;;7.73;6.30;;;20.00;42.10;;;;;;4995761;28;20223;-63
2022/11/21 08:09:55;;;;;;;7.10;5.83;;;20.00;42.10;;;;;;5000131;28;20258;-61
2022/11/21 08:12:20;;;;;;;11.00;6.63;;;20.00;42.10;;;;;;4985922;28;20220;-62
2022/11/21 08:14:46;;;;;;;6.43;5.83;;;20.00;42.10;;;;;;4986903;28;20519;-61
2022/11/21 08:17:12;;;;;;;6.80;6.07;;;20.00;42.10;;;;;;4981035;28;20248;-62
2022/11/21 08:19:38;;;;;;;7.73;6.93;;;20.00;42.10;;;;;;4990202;28;20327;-62
2022/11/21 08:22:04;;;;;;;6.97;6.10;;;20.00;42.10;;;;;;4984652;28;20435;-62
2022/11/21 08:24:29;;;;;;;7.07;5.93;;;20.10;42.10;;;;;;4982724;28;20223;-62
2022/11/21 08:26:55;;;;;;;8.23;6.03;;;20.10;42.10;;;;;;4988406;28;20247;-63
2022/11/21 08:29:20;;;;;;;7.17;5.80;;;20.10;42.10;;;;;;4979098;28;20239;-61
2022/11/21 08:31:46;;;;;;;8.50;5.83;;;20.10;42.10;;;;;;4979237;28;20687;-62
2022/11/21 08:34:12;;;;;;;6.70;6.07;;;20.10;42.10;;;;;;4981992;28;20215;-61
2022/11/21 08:36:37;;;;;;;7.50;6.80;;;20.10;42.20;;;;;;4982892;28;20543;-62
2022/11/21 08:39:04;;;;;;;6.30;5.70;;;20.10;42.10;;;;;;4983679;28;20211;-64
2022/11/21 08:44:13;;;;;;;9.97;6.70;;;20.10;42.20;;;;;;4990345;28;20520;-62
2022/11/21 08:46:39;;;;;;;7.13;6.43;;;20.10;42.20;;;;;;4990069;28;20473;-62
2022/11/21 08:49:07;;;;;;;6.40;5.90;;;20.10;42.10;;;;;;4988828;28;20236;-62
2022/11/21 08:51:32;;;;;;;7.07;6.40;;;20.10;42.10;;;;;;4982067;28;20219;-63
2022/11/21 08:53:58;;;;;;;8.80;6.97;;;20.10;42.10;;;;;;4987257;28;20531;-62
2022/11/21 08:56:24;;;;;;;9.77;6.60;;;20.10;42.20;;;;;;4986044;28;20628;-63
2022/11/21 08:58:49;;;;;;;9.90;6.63;;;20.10;42.30;;;;;;4987077;28;20691;-63
2022/11/21 09:01:15;;;;;;;7.70;6.50;;;20.10;42.20;;;;;;4981454;28;20619;-64
2022/11/21 09:03:40;;;;;;;8.47;6.57;;;20.00;42.10;;;;;;4989016;28;20731;-63
2022/11/21 09:06:06;;;;;;;9.30;7.10;;;20.00;42.20;;;;;;4982927;28;20232;-64
2022/11/21 09:08:32;;;;;;;7.03;6.33;;;20.00;42.10;;;;;;4998068;28;20254;-63
2022/11/21 09:11:01;;;;;;;6.67;6.07;;;20.00;42.20;;;;;;5003522;28;20715;-62
2022/11/21 09:13:27;;;;;;;7.17;6.47;;;20.10;42.20;;;;;;5004411;28;20223;-63
2022/11/21 09:18:37;;;;;;;7.00;5.93;;;20.00;42.20;;;;;;4992477;28;20227;-63
2022/11/21 09:21:02;;;;;;;7.03;6.17;;;20.00;42.20;;;;;;4984282;28;20458;-62
2022/11/21 09:23:28;;;;;;;6.17;5.67;;;20.00;42.20;;;;;;4983945;28;20691;-62
2022/11/21 09:25:53;;;;;;;7.00;6.40;;;20.00;42.20;;;;;;4983732;28;20646;-62
2022/11/21 09:28:19;;;;;;;8.00;6.43;;;20.00;42.20;;;;;;4984614;28;20227;-62
2022/11/21 09:30:45;;;;;;;6.30;5.77;;;20.00;42.20;;;;;;4980543;28;20236;-62
2022/11/21 09:33:12;;;;;;;7.20;6.50;;;20.00;42.20;;;;;;4988266;28;20224;-62
2022/11/21 09:35:38;;;;;;;7.10;6.17;;;20.00;42.30;;;;;;4997362;28;20238;-62
2022/11/21 09:38:04;;;;;;;7.87;6.60;;;20.00;43.00;;;;;;4992179;28;20455;-62
2022/11/21 09:40:30;;;;;;;7.07;6.37;;;20.00;42.20;;;;;;4980708;28;20223;-63
2022/11/21 09:43:24;;;;;;;8.90;6.33;;;20.00;42.20;;;;;;4978965;28;20437;-63
2022/11/21 09:45:56;;;;;;;6.60;5.90;;;20.00;42.20;;;;;;4993461;28;20533;-63
2022/11/21 09:48:32;;;;;;;6.27;5.50;;;20.00;42.30;;;;;;4997448;28;20457;-62
2022/11/21 09:51:03;;;;;;;6.77;6.07;;;20.00;42.30;;;;;;4992981;28;20470;-63
2022/11/21 09:53:34;;;;;;;6.57;5.80;;;20.00;42.30;;;;;;4976274;28;20458;-63
2022/11/21 09:56:11;;;;;;;6.80;5.67;;;20.00;42.30;;;;;;4980484;28;20510;-63
2022/11/21 09:58:42;;;;;;;6.57;5.97;;;20.00;42.20;;;;;;4975521;28;20453;-63
2022/11/21 10:01:15;;;;;;;7.13;6.10;;;20.00;42.20;;;;;;4977466;28;20501;-62
2022/11/21 10:03:46;;;;;;;8.60;5.90;;;20.00;42.30;;;;;;4986430;28;20956;-62
2022/11/21 10:06:19;;;;;;;6.20;5.70;;;20.00;42.30;;;;;;4994957;28;20465;-62
2022/11/21 10:09:25;;;;;;;6.03;5.47;;;20.00;42.30;;;;;;4992818;28;20483;-62
2022/11/21 10:12:38;;;;;;;6.30;5.70;;;20.00;42.20;;;;;;4986526;28;20452;-63
2022/11/21 10:15:40;;;;;;;8.47;6.33;;;20.00;42.30;;;;;;4985282;28;20782;-62
2022/11/21 10:18:29;;;;;;;6.73;6.03;;;20.00;42.30;;;;;;4999080;28;21963;-62
2022/11/21 10:21:04;;;;;;;6.53;5.93;;;20.00;42.30;;;;;;4980423;28;20455;-62
2022/11/21 10:24:01;;;;;;;5.63;5.23;;;20.00;42.30;;;;;;4981866;28;20752;-61
2022/11/21 10:26:27;;;;;;;6.00;5.50;;;20.00;42.30;;;;;;4979832;28;20451;-62
2022/11/21 10:29:10;;;;;;;6.57;6.00;;;20.00;42.30;;;;;;4980613;28;20454;-62
2022/11/21 10:31:38;;;;;;;7.17;6.47;;;20.00;42.30;;;;;;5001975;28;20216;-62
2022/11/21 10:34:19;;;;;;;5.53;5.03;;;20.00;42.30;;;;;;5002098;28;20800;-62
2022/11/21 10:36:50;;;;;;;6.43;5.83;;;20.00;42.30;;;;;;4987153;28;20462;-62
2022/11/21 10:39:26;;;;;;;6.73;5.30;;;20.00;42.30;;;;;;4990611;28;20481;-62
2022/11/21 10:42:00;;;;;;;5.97;5.43;;;20.00;42.30;;;;;;4996049;28;20465;-62
2022/11/21 10:47:26;;;;;;;5.40;4.90;;;20.00;42.30;;;;;;4977628;28;20570;-62
2022/11/21 10:50:07;;;;;;;5.63;5.17;;;20.00;42.30;;;;;;4992049;28;20592;-62
2022/11/21 10:52:41;;;;;;;6.60;4.67;;;20.00;42.40;;;;;;4989951;28;20936;-62
2022/11/21 10:55:10;;;;;;;4.97;4.47;;;20.00;42.30;;;;;;4992310;28;20501;-62
2022/11/21 10:57:49;;;;;;;5.17;4.63;;;20.00;42.30;;;;;;4980030;28;20465;-62
2022/11/21 11:00:24;;;;;;;5.87;5.40;;;20.00;42.40;;;;;;4980222;28;20540;-62
2022/11/21 11:02:56;;;;;;;5.77;5.37;;;20.00;42.30;;;;;;4974596;28;20810;-62
2022/11/21 11:05:27;;;;;;;4.93;4.43;;;20.00;42.40;;;;;;4983815;28;20467;-62
2022/11/21 11:08:07;;;;;;;5.27;4.77;;;20.00;42.30;;;;;;4988018;28;20539;-62
2022/11/21 11:10:42;;;;;;;5.53;5.00;;;20.00;42.30;;;;;;5002929;28;20456;-62
2022/11/21 11:16:08;;;;;;;5.10;4.70;;;20.00;42.30;;;;;;4979312;28;20446;-63
2022/11/21 11:18:40;;;;;;;5.13;4.33;;;20.00;42.30;;;;;;4995028;28;20460;-64
2022/11/21 11:21:13;;;;;;;5.00;4.60;;;20.00;42.30;;;;;;5012204;28;20428;-63
2022/11/21 11:23:39;;;;;;;4.80;4.50;;;20.00;42.30;;;;;;4997794;28;20471;-63
2022/11/21 11:26:20;;;;;;;4.27;4.07;;;20.00;42.30;;;;;;5001795;28;20770;-62
2022/11/21 11:28:46;;;;;;;5.63;5.13;;;20.00;42.30;;;;;;4998802;28;20254;-62
2022/11/21 11:31:11;;;;;;;4.83;4.43;;;20.00;42.30;;;;;;4995128;28;20471;-63
2022/11/21 11:33:52;;;;;;;3.87;3.57;;;20.00;42.30;;;;;;4992096;28;20227;-62
2022/11/21 11:36:33;;;;;;;8.73;4.77;;;20.00;42.30;;;;;;5002997;28;20313;-62
2022/11/21 11:38:59;;;;;;;4.20;3.80;;;20.00;42.30;;;;;;4987262;28;20989;-62
2022/11/21 11:47:58;;;;;;;4.07;3.77;;;20.00;42.30;;;;;;4982098;28;20457;-61
2022/11/21 11:50:50;;;;;;;4.57;4.17;;;20.00;42.30;;;;;;4982691;28;20469;-60
2022/11/21 11:53:20;;;;;;;4.10;3.70;;;20.00;42.30;;;;;;4984259;28;20541;-60
2022/11/21 11:55:48;;;;;;;3.50;3.20;;;20.10;42.30;;;;;;4980985;28;20454;-60
2022/11/21 11:58:40;;;;;;;3.73;3.53;;;20.00;42.30;;;;;;4986219;28;20476;-61
2022/11/21 12:01:11;;;;;;;4.00;3.70;;;20.00;42.30;;;;;;4980149;28;20461;-61
2022/11/21 12:03:42;;;;;;;3.63;3.43;;;20.00;42.30;;;;;;4988985;28;20471;-62
2022/11/21 12:06:17;;;;;;;3.30;3.10;;;20.00;42.30;;;;;;4981009;28;20471;-62
2022/11/21 12:08:53;;;;;;;3.80;3.50;;;20.10;42.30;;;;;;4983371;28;20892;-62
2022/11/21 12:12:08;;;;;;;3.50;3.27;;;20.00;42.30;;;;;;4981753;28;20472;-62
2022/11/21 12:17:55;;;;;;;5.13;3.20;;;20.00;42.30;;;;;;4999455;28;20491;-61
2022/11/21 12:20:33;;;;;;;3.30;3.10;;;20.00;42.30;;;;;;5003329;28;20467;-62
2022/11/21 12:22:58;;;;;;;3.00;2.80;;;20.00;42.30;;;;;;4983778;28;20466;-61
2022/11/21 12:25:40;;;;;;;2.80;2.60;;;20.00;42.30;;;;;;4979776;28;20787;-61
2022/11/21 12:28:24;;;;;;;3.77;3.50;;;20.10;42.30;;;;;;4998538;28;20659;-61
2022/11/21 12:31:13;;;;;;;3.30;3.10;;;20.10;42.30;;;;;;5003843;28;21020;-61
2022/11/21 12:34:01;;;;;;;3.47;3.13;;;20.10;42.20;;;;;;4988389;28;20487;-61
2022/11/21 12:36:51;;;;;;;3.17;2.97;;;20.10;42.20;;;;;;4990688;28;20434;-61
2022/11/21 12:39:48;;;;;;;3.30;3.03;;;20.10;42.20;;;;;;5001800;28;20446;-61
2022/11/21 12:42:48;;;;;;;3.00;2.80;;;20.10;42.30;;;;;;5001917;28;20545;-61
2022/11/21 12:45:32;;;;;;;3.13;2.93;;;20.10;42.20;;;;;;4996362;28;20457;-62
2022/11/21 12:54:29;;;;;;;3.20;2.97;;;20.10;42.20;;;;;;4981856;28;20446;-61
2022/11/21 12:57:15;;;;;;;3.07;2.87;;;20.10;42.20;;;;;;4995258;28;20504;-61
2022/11/21 13:00:10;;;;;;;2.83;2.63;;;20.10;42.20;;;;;;4979759;28;20417;-61
2022/11/21 13:02:57;;;;;;;2.67;2.47;;;20.10;42.30;;;;;;4983581;28;20447;-61
2022/11/21 13:05:37;;;;;;;2.93;2.20;;;20.10;42.20;;;;;;4986712;28;20448;-61
2022/11/21 13:08:10;;;;;;;2.53;2.33;;;20.10;42.30;;;;;;4985956;28;20473;-62
2022/11/21 13:10:40;;;;;;;2.40;2.30;;;20.10;42.30;;;;;;4978591;28;21021;-62
2022/11/21 13:13:28;;;;;;;2.97;2.77;;;20.10;42.20;;;;;;4995793;28;21008;-61
2022/11/21 13:16:09;;;;;;;2.70;2.53;;;20.10;42.30;;;;;;4985577;28;20900;-61
2022/11/21 13:18:42;;;;;;;2.33;2.13;;;20.10;42.20;;;;;;4978854;28;20552;-62
2022/11/21 13:21:41;;;;;;;2.60;2.07;;;20.10;42.20;;;;;;4983826;28;20459;-61
2022/11/21 13:24:07;;;;;;;2.70;2.50;;;20.10;42.20;;;;;;4994891;28;20891;-61
2022/11/21 13:26:36;;;;;;;2.30;2.10;;;20.10;42.30;;;;;;5000878;28;20468;-61
2022/11/21 13:29:13;;;;;;;2.27;2.00;;;20.10;42.20;;;;;;4999222;28;20461;-62
2022/11/21 13:31:39;;;;;;;2.73;2.53;;;20.10;42.20;;;;;;4996961;28;20436;-62
2022/11/21 13:34:34;;;;;;;2.60;2.50;;;20.10;42.20;;;;;;4997392;28;20448;-61
2022/11/21 13:36:59;;;;;;;1.87;1.77;;;20.10;42.20;;;;;;5002549;28;20457;-61
2022/11/21 13:39:28;;;;;;;2.07;1.97;;;20.10;42.20;;;;;;5006807;28;20408;-61
2022/11/21 13:44:45;;;;;;;1.90;1.80;;;20.10;42.10;;;;;;5001383;28;20881;-63
2022/11/21 13:47:34;;;;;;;2.30;2.10;;;20.10;42.20;;;;;;4989896;28;20458;-62
2022/11/21 13:50:25;;;;;;;2.13;2.03;;;20.10;42.10;;;;;;4980289;28;20251;-61